KSUW/SUW METAR and TAF weather

Enter ICAO airport designator
Station Type Date Time Source
KSUW METAR 2021/09/28 15:55 UTC NOAA

KSUW 281555Z AUTO 23004KT 10SM CLR 18/12 A2996 RMK AO2 T01780118


Station Type Date Time Source
KSUW Decoded METAR 2021/09/28 15:55 UTC NOAA

Superior, Richard I. Bong Airport, WI, United States (KSUW) 46-41-23N 092-05-41W
Sep 28, 2021 - 11:55 AM EDT / 2021.09.28 1555 UTC
Wind: from the SW (230 degrees) at 5 MPH (4 KT):0
Visibility: 10 mile(s):0
Sky conditions: clear
Temperature: 64.0 F (17.8 C)
Dew Point: 53.2 F (11.8 C)
Relative Humidity: 67%
Pressure (altimeter): 29.96 in. Hg (1014 hPa)
ob: KSUW 281555Z AUTO 23004KT 10SM CLR 18/12 A2996 RMK AO2 T01780118
cycle: 16

Station Type Date Time Source
KSUW TAF UTC NOAA

Error!

Example: see airport list